METAR Data
IDs: Format: Raw Decoded Include TAF

Data at: 1938 UTC 31 Jan 2023

METAR for:KIAH (Houston/Bush Intl, TX, US)
Text:KIAH 311853Z 35011KT 7SM OVC007 06/05 A3021 RMK AO2 PRESFR SLP230 T00610050
Temperature: 6.1°C ( 43°F)
Dewpoint: 5.0°C ( 41°F) [RH = 93%]
Pressure (altimeter):30.21 inches Hg (1023.1 mb) [Sea level pressure: 1023.0 mb]
Winds:from the N (350 degrees) at 13 MPH (11 knots; 5.7 m/s)
Visibility: 7 sm ( 11 km)
Ceiling:700 feet AGL
Clouds: overcast cloud deck at 700 feet AGL

METAR for:KHOU (Houston/Hobby Arpt, TX, US)
Text:KHOU 311853Z 33008KT 10SM OVC006 07/06 A3020 RMK AO2 SLP232 T00720056
Temperature: 7.2°C ( 45°F)
Dewpoint: 5.6°C ( 42°F) [RH = 90%]
Pressure (altimeter):30.20 inches Hg (1022.8 mb) [Sea level pressure: 1023.2 mb]
Winds:from the NNW (330 degrees) at 9 MPH (8 knots; 4.1 m/s)
Visibility:10 or more sm (16+ km)
Ceiling:600 feet AGL
Clouds: overcast cloud deck at 600 feet AGL

METAR for:KGLS (Galveston/Scholes In, TX, US)
Text:KGLS 311852Z 34012KT 4SM BR OVC004 09/08 A3019 RMK AO2 SLP222 T00890078
Temperature: 8.9°C ( 48°F)
Dewpoint: 7.8°C ( 46°F) [RH = 93%]
Pressure (altimeter):30.19 inches Hg (1022.4 mb) [Sea level pressure: 1022.2 mb]
Winds:from the NNW (340 degrees) at 14 MPH (12 knots; 6.2 m/s)
Visibility: 4 sm ( 6 km)
Ceiling:400 feet AGL
Clouds: overcast cloud deck at 400 feet AGL
Weather:BR (mist)

METAR for:KLVJ (Houston/Pearland Rgn, TX, US)
Text:KLVJ 311853Z AUTO 34008KT 6SM BR OVC006 08/06 A3021 RMK AO2 SLP229 T00780061
Temperature: 7.8°C ( 46°F)
Dewpoint: 6.1°C ( 43°F) [RH = 89%]
Pressure (altimeter):30.21 inches Hg (1023.1 mb) [Sea level pressure: 1022.9 mb]
Winds:from the NNW (340 degrees) at 9 MPH (8 knots; 4.1 m/s)
Visibility: 6 sm ( 10 km)
Ceiling:600 feet AGL
Clouds: overcast cloud deck at 600 feet AGL
Weather:BR (mist)
QC Flag:automated observation with no human augmentation

METAR for:KSGR (Houston/Sugar Land R, TX, US)
Text:KSGR 311853Z 33009KT 10SM OVC006 06/04 A3022 RMK AO2 SLP234 T00560039
Temperature: 5.6°C ( 42°F)
Dewpoint: 3.9°C ( 39°F) [RH = 89%]
Pressure (altimeter):30.22 inches Hg (1023.5 mb) [Sea level pressure: 1023.4 mb]
Winds:from the NNW (330 degrees) at 10 MPH (9 knots; 4.6 m/s)
Visibility:10 or more sm (16+ km)
Ceiling:600 feet AGL
Clouds: overcast cloud deck at 600 feet AGL

METAR for:KDWH (Houston/Hooks Mem, TX, US)
Text:KDWH 311853Z 36008G17KT 3SM BR OVC006 04/03 A3023 RMK AO2 SLP236 T00440028
Temperature: 4.4°C ( 40°F)
Dewpoint: 2.8°C ( 37°F) [RH = 89%]
Pressure (altimeter):30.23 inches Hg (1023.8 mb) [Sea level pressure: 1023.6 mb]
Winds:from the N (360 degrees) at 9 MPH (8 knots; 4.1 m/s) gusting to 20 MPH (17 knots; 8.7 m/s)
Visibility: 3 sm ( 5 km)
Ceiling:600 feet AGL
Clouds: overcast cloud deck at 600 feet AGL
Weather:BR (mist)

METAR for:KCLL (College Station/East, TX, US)
Text:KCLL 311907Z 35013KT 4SM BR OVC005 01/M01 A3027 RMK AO2 T00061006
Temperature: 0.6°C ( 33°F)
Dewpoint: -0.6°C ( 31°F) [RH = 92%]
Pressure (altimeter):30.27 inches Hg (1025.1 mb)
Winds:from the N (350 degrees) at 15 MPH (13 knots; 6.7 m/s)
Visibility: 4 sm ( 6 km)
Ceiling:500 feet AGL
Clouds: overcast cloud deck at 500 feet AGL
Weather:BR (mist)

METAR for:KUTS (Huntsville Muni, TX, US)
Text:KUTS 311916Z AUTO 34005G15KT 2 1/2SM BR OVC003 02/01 A3024 RMK AO2 T00170006
Temperature: 1.7°C ( 35°F)
Dewpoint: 0.6°C ( 33°F) [RH = 92%]
Pressure (altimeter):30.24 inches Hg (1024.1 mb)
Winds:from the NNW (340 degrees) at 6 MPH (5 knots; 2.6 m/s) gusting to 17 MPH (15 knots; 7.7 m/s)
Visibility: 2.50 sm ( 4.02 km)
Ceiling:300 feet AGL
Clouds: overcast cloud deck at 300 feet AGL
Weather:BR (mist)
QC Flag:automated observation with no human augmentation

METAR for:KCXO (Conroe/Executive Arp, TX, US)
Text:KCXO 311853Z 34011KT 3SM BR OVC005 03/03 A3024 RMK AO2 SLP241 T00330028
Temperature: 3.3°C ( 38°F)
Dewpoint: 2.8°C ( 37°F) [RH = 97%]
Pressure (altimeter):30.24 inches Hg (1024.1 mb) [Sea level pressure: 1024.1 mb]
Winds:from the NNW (340 degrees) at 13 MPH (11 knots; 5.7 m/s)
Visibility: 3 sm ( 5 km)
Ceiling:500 feet AGL
Clouds: overcast cloud deck at 500 feet AGL
Weather:BR (mist)

METAR for:KLBX (Angleton/Texas Gulf, TX, US)
Text:No data found

METAR for:KPSX (Palacios Muni, TX, US)
Text:KPSX 311853Z AUTO 36019KT 10SM OVC005 06/04 A3019 RMK AO2 SLP221 T00560044
Temperature: 5.6°C ( 42°F)
Dewpoint: 4.4°C ( 40°F) [RH = 92%]
Pressure (altimeter):30.19 inches Hg (1022.4 mb) [Sea level pressure: 1022.1 mb]
Winds:from the N (360 degrees) at 22 MPH (19 knots; 9.8 m/s)
Visibility:10 or more sm (16+ km)
Ceiling:500 feet AGL
Clouds: overcast cloud deck at 500 feet AGL
QC Flag:automated observation with no human augmentation